createdAt,value
2017-10-01T00:00:25.626Z,84.61
2017-10-01T00:02:18.606Z,84.89
2017-10-01T00:03:18.585Z,84.52
2017-10-01T00:05:12.155Z,83.65
2017-10-01T00:06:11.534Z,83.79
2017-10-01T00:08:04.505Z,83.22
2017-10-01T00:09:04.485Z,82.26
2017-10-01T00:10:57.442Z,82.45
2017-10-01T00:11:57.458Z,82.26
2017-10-01T00:13:50.416Z,82.35
2017-10-01T00:14:50.396Z,81.93
2017-10-01T00:16:43.370Z,83.27
2017-10-01T00:17:43.353Z,83.94
2017-10-01T00:19:36.288Z,83.31
2017-10-01T00:20:36.305Z,82.83
2017-10-01T00:22:29.276Z,83.50
2017-10-01T00:23:29.256Z,83.40
2017-10-01T00:25:22.191Z,83.31
2017-10-01T00:26:22.205Z,82.54
2017-10-01T00:28:15.178Z,82.98
2017-10-01T00:29:15.160Z,83.31
2017-10-01T00:31:08.103Z,82.45
2017-10-01T00:32:08.118Z,83.40
2017-10-01T00:34:02.135Z,83.50
2017-10-01T00:35:02.055Z,83.50
2017-10-01T00:36:54.999Z,83.75
2017-10-01T00:37:55.013Z,85.28
2017-10-01T00:39:47.981Z,86.43
2017-10-01T00:40:47.959Z,86.04
2017-10-01T00:42:40.935Z,84.23
2017-10-01T00:43:40.910Z,83.79
2017-10-01T00:45:33.858Z,82.74
2017-10-01T00:46:33.863Z,83.17
2017-10-01T00:48:26.830Z,82.07
2017-10-01T00:49:26.811Z,81.02
2017-10-01T00:51:19.739Z,82.54
2017-10-01T00:52:19.756Z,83.56
2017-10-01T00:54:12.723Z,84.32
2017-10-01T00:55:12.708Z,83.56
2017-10-01T00:57:05.643Z,83.65
2017-10-01T00:58:05.656Z,84.32
2017-10-01T00:59:58.625Z,85.18
2017-10-01T01:00:58.608Z,85.18
2017-10-01T01:02:51.544Z,84.70
2017-10-01T01:03:51.558Z,84.27
2017-10-01T01:05:44.539Z,84.89
2017-10-01T01:06:44.513Z,84.99
2017-10-01T01:08:37.964Z,84.27
2017-10-01T01:09:37.981Z,84.55
2017-10-01T01:11:30.957Z,85.94
2017-10-01T01:12:30.936Z,86.14
2017-10-01T01:14:23.909Z,85.38
2017-10-01T01:15:23.896Z,85.18
2017-10-01T01:17:16.829Z,84.46
2017-10-01T01:18:16.843Z,84.89
2017-10-01T01:20:09.815Z,85.75
2017-10-01T01:21:09.795Z,85.47
2017-10-01T01:23:02.739Z,84.75
2017-10-01T01:24:02.757Z,85.03
2017-10-01T01:25:55.719Z,84.08
2017-10-01T01:26:55.698Z,84.94
2017-10-01T01:28:48.629Z,84.17
2017-10-01T01:29:48.645Z,84.17
2017-10-01T01:31:42.605Z,83.79
2017-10-01T01:32:42.587Z,84.94
2017-10-01T01:34:35.520Z,85.03
2017-10-01T01:35:35.536Z,83.89
2017-10-01T01:37:28.507Z,84.94
2017-10-01T01:38:28.481Z,85.13
2017-10-01T01:40:22.444Z,84.17
2017-10-01T01:41:22.427Z,83.79
2017-10-01T01:43:15.360Z,84.17
2017-10-01T01:44:15.381Z,83.60
2017-10-01T01:46:08.343Z,84.08
2017-10-01T01:47:08.320Z,84.27
2017-10-01T01:49:01.261Z,83.79
2017-10-01T01:50:01.272Z,83.79
2017-10-01T01:51:54.244Z,83.31
2017-10-01T01:52:54.223Z,82.64
2017-10-01T01:54:47.183Z,82.45
2017-10-01T01:55:47.179Z,82.74
2017-10-01T01:57:40.154Z,83.40
2017-10-01T01:58:40.141Z,82.83
2017-10-01T02:00:33.069Z,82.17
2017-10-01T02:01:33.185Z,82.17
2017-10-01T02:03:26.061Z,82.26
2017-10-01T02:04:26.039Z,82.74
2017-10-01T02:06:19.018Z,82.45
2017-10-01T02:07:18.992Z,82.64
2017-10-01T02:09:11.931Z,82.54
2017-10-01T02:10:11.949Z,82.35
2017-10-01T02:12:04.917Z,82.31
2017-10-01T02:13:05.002Z,81.93
2017-10-01T02:14:04.922Z,82.26
2017-10-01T02:15:04.947Z,81.93
2017-10-01T02:16:04.959Z,82.60
2017-10-01T02:17:04.981Z,82.26
2017-10-01T02:18:05.005Z,81.97
2017-10-01T02:19:05.023Z,82.07
2017-10-01T02:20:05.041Z,82.31
2017-10-01T02:21:05.062Z,82.51
2017-10-01T02:22:05.080Z,82.45
2017-10-01T02:23:05.100Z,82.26
2017-10-01T02:24:05.124Z,81.93
2017-10-01T02:25:05.138Z,82.22
2017-10-01T02:26:05.162Z,82.60
2017-10-01T02:27:05.179Z,82.89
2017-10-01T02:28:05.198Z,83.65
2017-10-01T02:29:05.219Z,83.84
2017-10-01T02:30:05.252Z,84.23
2017-10-01T02:31:05.257Z,83.84
2017-10-01T02:32:05.279Z,83.75
2017-10-01T02:33:05.304Z,83.75
2017-10-01T02:34:05.320Z,83.46
2017-10-01T02:35:05.335Z,82.89
2017-10-01T02:36:05.355Z,83.56
2017-10-01T02:37:05.382Z,83.65
2017-10-01T02:38:05.394Z,82.70
2017-10-01T02:39:05.414Z,83.56
2017-10-01T02:40:05.437Z,83.27
2017-10-01T02:41:05.456Z,83.27
2017-10-01T02:42:05.477Z,83.56
2017-10-01T02:43:05.493Z,83.65
2017-10-01T02:44:05.514Z,83.46
2017-10-01T02:45:05.532Z,83.65
2017-10-01T02:46:05.551Z,83.37
2017-10-01T02:47:05.574Z,83.56
2017-10-01T02:48:05.594Z,83.37
2017-10-01T02:49:05.612Z,83.37
2017-10-01T02:50:05.633Z,83.65
2017-10-01T02:51:05.654Z,83.56
2017-10-01T02:52:05.671Z,83.75
2017-10-01T02:53:05.690Z,83.75
2017-10-01T02:54:05.711Z,84.13
2017-10-01T02:55:05.728Z,83.75
2017-10-01T02:56:05.750Z,84.03
2017-10-01T02:57:05.772Z,84.09
2017-10-01T02:58:05.786Z,84.56
2017-10-01T02:59:05.807Z,84.76
2017-10-01T03:00:05.830Z,84.76
2017-10-01T03:01:05.847Z,84.76
2017-10-01T03:02:05.867Z,85.05
2017-10-01T03:03:05.885Z,85.05
2017-10-01T03:04:05.908Z,84.76
2017-10-01T03:05:05.927Z,85.05
2017-10-01T03:06:05.949Z,84.09
2017-10-01T03:07:05.973Z,83.61
2017-10-01T03:08:05.989Z,84.19
2017-10-01T03:09:06.003Z,83.61
2017-10-01T03:10:06.020Z,83.99
2017-10-01T03:11:06.043Z,84.09
2017-10-01T03:12:06.063Z,84.85
2017-10-01T03:13:06.082Z,84.95
2017-10-01T03:14:06.101Z,84.85
2017-10-01T03:15:06.122Z,84.76
2017-10-01T03:16:06.138Z,84.85
2017-10-01T03:17:06.157Z,85.71
2017-10-01T03:18:06.183Z,85.24
2017-10-01T03:19:06.196Z,84.81
2017-10-01T03:20:06.219Z,85.24
2017-10-01T03:21:06.236Z,85.14
2017-10-01T03:22:06.257Z,84.85
2017-10-01T03:23:06.280Z,85.33
2017-10-01T03:24:06.296Z,85.52
2017-10-01T03:25:06.314Z,85.38
2017-10-01T03:26:06.332Z,85.58
2017-10-01T03:27:06.357Z,85.67
2017-10-01T03:28:06.373Z,84.81
2017-10-01T03:29:06.399Z,85.29
2017-10-01T03:30:06.412Z,85.67
2017-10-01T03:31:06.430Z,85.19
2017-10-01T03:32:06.449Z,84.81
2017-10-01T03:33:06.467Z,84.62
2017-10-01T03:34:06.487Z,85.00
2017-10-01T03:35:06.507Z,85.34
2017-10-01T03:36:06.527Z,85.91
2017-10-01T03:37:06.546Z,86.01
2017-10-01T03:38:06.565Z,86.01
2017-10-01T03:39:06.587Z,85.91
2017-10-01T03:40:06.606Z,85.91
2017-10-01T03:41:06.622Z,86.01
2017-10-01T03:42:06.642Z,86.39
2017-10-01T03:43:06.660Z,86.68
2017-10-01T03:44:06.680Z,85.91
2017-10-01T03:45:06.699Z,85.72
2017-10-01T03:46:06.715Z,85.82
2017-10-01T03:47:06.736Z,85.15
2017-10-01T03:48:06.758Z,84.77
2017-10-01T03:49:06.774Z,84.96
2017-10-01T03:50:06.794Z,85.44
2017-10-01T03:51:06.812Z,85.44
2017-10-01T03:52:06.831Z,85.91
2017-10-01T03:53:06.852Z,86.20
2017-10-01T03:54:06.871Z,85.63
2017-10-01T03:55:06.890Z,85.53
2017-10-01T03:56:06.905Z,85.53
2017-10-01T03:57:06.927Z,85.72
2017-10-01T03:58:06.953Z,86.10
2017-10-01T03:59:06.966Z,86.54
2017-10-01T04:00:06.989Z,86.49
2017-10-01T04:01:07.002Z,86.01
2017-10-01T04:02:07.020Z,85.97
2017-10-01T04:03:07.041Z,85.68
2017-10-01T04:04:07.061Z,85.97
2017-10-01T04:05:07.164Z,85.58
2017-10-01T04:06:07.101Z,86.73
2017-10-01T04:07:07.149Z,86.82
2017-10-01T04:08:07.135Z,87.54
2017-10-01T04:09:07.158Z,87.83
2017-10-01T04:10:07.255Z,87.93
2017-10-01T04:11:07.201Z,88.40
2017-10-01T04:12:07.244Z,89.12
2017-10-01T04:13:07.250Z,88.21
2017-10-01T04:14:07.257Z,88.17
2017-10-01T04:15:07.391Z,88.55
2017-10-01T04:16:07.291Z,88.36
2017-10-01T04:17:07.340Z,88.31
2017-10-01T04:18:07.347Z,88.26
2017-10-01T04:19:07.341Z,88.12
2017-10-01T04:20:07.370Z,88.02
2017-10-01T04:21:07.393Z,87.64
2017-10-01T04:22:07.396Z,87.74
2017-10-01T04:23:07.415Z,87.64
2017-10-01T04:24:07.496Z,88.31
2017-10-01T04:25:07.454Z,88.40
2017-10-01T04:26:07.471Z,88.88
2017-10-01T04:27:07.499Z,88.31
2017-10-01T04:28:07.511Z,87.83
2017-10-01T04:29:07.550Z,88.07
2017-10-01T04:30:07.563Z,89.79
2017-10-01T04:31:07.565Z,89.60
2017-10-01T04:32:07.581Z,89.36
2017-10-01T04:33:07.602Z,88.50
2017-10-01T04:34:07.619Z,88.69
2017-10-01T04:35:07.637Z,88.88
2017-10-01T04:36:07.657Z,88.84
2017-10-01T04:37:07.686Z,89.50
2017-10-01T04:38:07.699Z,88.84
2017-10-01T04:39:07.715Z,88.55
2017-10-01T04:40:07.734Z,89.69
2017-10-01T04:41:07.754Z,89.79
2017-10-01T04:42:07.769Z,89.89
2017-10-01T04:43:07.785Z,88.98
2017-10-01T04:44:07.805Z,88.40
2017-10-01T04:45:07.824Z,87.64
2017-10-01T04:46:07.843Z,87.83
2017-10-01T04:47:07.859Z,87.54
2017-10-01T04:48:07.880Z,87.54
2017-10-01T04:49:07.901Z,87.93
2017-10-01T04:50:07.918Z,87.83
2017-10-01T04:51:07.936Z,87.45
2017-10-01T04:52:07.953Z,87.26
2017-10-01T04:53:07.976Z,87.64
2017-10-01T04:54:07.994Z,87.64
2017-10-01T04:55:08.010Z,86.69
2017-10-01T04:56:08.029Z,87.07
2017-10-01T04:57:08.046Z,87.07
2017-10-01T04:58:08.065Z,86.40
2017-10-01T04:59:08.083Z,86.69
2017-10-01T05:00:08.101Z,86.40
2017-10-01T05:01:08.122Z,87.26
2017-10-01T05:02:08.139Z,87.74
2017-10-01T05:03:08.181Z,88.40
2017-10-01T05:04:08.175Z,88.59
2017-10-01T05:05:08.193Z,88.55
2017-10-01T05:06:08.213Z,88.26
2017-10-01T05:07:08.235Z,89.31
2017-10-01T05:08:08.252Z,89.60
2017-10-01T05:09:08.275Z,89.79
2017-10-01T05:10:08.289Z,89.26
2017-10-01T05:11:08.306Z,88.69
2017-10-01T05:12:08.327Z,88.78
2017-10-01T05:13:08.345Z,88.40
2017-10-01T05:14:08.362Z,87.45
2017-10-01T05:15:08.381Z,87.35
2017-10-01T05:16:08.467Z,87.02
2017-10-01T05:17:08.418Z,86.92
2017-10-01T05:18:08.435Z,87.87
2017-10-01T05:19:08.454Z,87.74
2017-10-01T05:20:08.476Z,87.93
2017-10-01T05:21:08.494Z,88.40
2017-10-01T05:22:08.511Z,88.40
2017-10-01T05:23:08.530Z,88.21
2017-10-01T05:24:08.548Z,88.59
2017-10-01T05:25:08.567Z,89.17
2017-10-01T05:26:08.590Z,88.78
2017-10-01T05:27:08.608Z,88.69
2017-10-01T05:28:08.623Z,89.26
2017-10-01T05:29:08.642Z,88.83
2017-10-01T05:30:08.661Z,88.26
2017-10-01T05:31:08.682Z,87.87
2017-10-01T05:32:08.699Z,87.49
2017-10-01T05:33:08.719Z,87.49
2017-10-01T05:34:08.738Z,87.68
2017-10-01T05:35:08.755Z,88.45
2017-10-01T05:36:08.785Z,88.26
2017-10-01T05:37:08.797Z,88.64
2017-10-01T05:38:08.811Z,88.16
2017-10-01T05:39:08.831Z,87.68
2017-10-01T05:40:08.852Z,87.15
2017-10-01T05:41:08.872Z,87.68
2017-10-01T05:42:08.887Z,87.40
2017-10-01T05:43:08.910Z,87.87
2017-10-01T05:44:08.926Z,88.16
2017-10-01T05:45:08.944Z,87.68
2017-10-01T05:46:08.963Z,87.49
2017-10-01T05:47:08.985Z,87.40
2017-10-01T05:48:09.005Z,87.40
2017-10-01T05:49:09.020Z,86.92
2017-10-01T05:50:09.040Z,87.25
2017-10-01T05:51:09.059Z,87.35
2017-10-01T05:52:09.077Z,85.72
2017-10-01T05:53:09.104Z,85.72
2017-10-01T05:54:09.117Z,86.10
2017-10-01T05:55:09.136Z,85.82
2017-10-01T05:56:09.153Z,86.30
2017-10-01T05:57:09.172Z,86.20
2017-10-01T05:58:09.193Z,86.49
2017-10-01T05:59:09.211Z,86.10
2017-10-01T06:00:09.244Z,86.30
2017-10-01T06:01:09.269Z,86.49
2017-10-01T06:02:09.266Z,86.39
2017-10-01T06:03:09.287Z,87.06
2017-10-01T06:04:09.313Z,86.77
2017-10-01T06:05:09.324Z,86.77
2017-10-01T06:06:09.349Z,85.63
2017-10-01T06:07:09.362Z,86.49
2017-10-01T06:08:09.384Z,86.24
2017-10-01T06:09:09.403Z,85.72
2017-10-01T06:10:09.424Z,86.20
2017-10-01T06:11:09.443Z,85.77
2017-10-01T06:12:09.456Z,85.77
2017-10-01T06:13:09.487Z,85.48
2017-10-01T06:14:09.496Z,84.91
2017-10-01T06:15:09.516Z,85.29
2017-10-01T06:16:09.539Z,85.77
2017-10-01T06:17:09.556Z,85.48
2017-10-01T06:18:09.579Z,85.19
2017-10-01T06:19:09.594Z,84.85
2017-10-01T06:20:09.610Z,85.05
2017-10-01T06:21:09.633Z,84.85
2017-10-01T06:22:09.650Z,84.76
2017-10-01T06:23:09.671Z,84.28
2017-10-01T06:24:09.690Z,84.85
2017-10-01T06:25:09.722Z,84.28
2017-10-01T06:26:09.728Z,83.80
2017-10-01T06:27:09.752Z,83.51
2017-10-01T06:28:09.768Z,85.00
2017-10-01T06:29:09.789Z,85.14
2017-10-01T06:30:09.810Z,84.47
2017-10-01T06:31:09.833Z,83.70
2017-10-01T06:32:09.847Z,83.37
2017-10-01T06:33:09.880Z,82.41
2017-10-01T06:34:09.890Z,82.31
2017-10-01T06:35:09.914Z,81.84
2017-10-01T06:36:09.927Z,81.79
2017-10-01T06:37:09.948Z,82.41
2017-10-01T06:38:09.968Z,82.12
2017-10-01T06:39:09.994Z,81.65
2017-10-01T06:40:10.003Z,82.84
2017-10-01T06:41:10.029Z,84.19
2017-10-01T06:42:10.049Z,84.76
2017-10-01T06:43:10.067Z,84.28
2017-10-01T06:44:10.098Z,84.38
2017-10-01T06:45:10.106Z,84.19
2017-10-01T06:46:10.131Z,83.27
2017-10-01T06:47:10.146Z,82.12
2017-10-01T06:48:10.193Z,82.60
2017-10-01T06:49:10.185Z,82.79
2017-10-01T06:50:10.209Z,82.79
2017-10-01T06:51:10.231Z,82.03
2017-10-01T06:52:10.243Z,81.68
2017-10-01T06:53:10.265Z,81.49
2017-10-01T06:54:10.284Z,80.92
2017-10-01T06:55:10.365Z,80.44
2017-10-01T06:56:10.326Z,80.73
2017-10-01T06:57:10.348Z,80.44
2017-10-01T06:58:10.364Z,80.54
2017-10-01T06:59:10.381Z,80.77
2017-10-01T07:00:10.414Z,79.81
2017-10-01T07:01:10.424Z,79.24
2017-10-01T07:02:10.461Z,79.77
2017-10-01T07:03:10.479Z,80.38
2017-10-01T07:04:10.486Z,79.43
2017-10-01T07:05:10.504Z,79.14
2017-10-01T07:06:10.532Z,78.32
2017-10-01T07:07:10.544Z,78.42
2017-10-01T07:08:10.573Z,77.84
2017-10-01T07:09:10.586Z,77.36
2017-10-01T07:10:10.609Z,77.75
2017-10-01T07:11:10.630Z,77.65
2017-10-01T07:12:10.655Z,78.32
2017-10-01T07:13:10.676Z,78.51
2017-10-01T07:14:10.704Z,77.75
2017-10-01T07:15:10.708Z,76.92
2017-10-01T07:16:10.735Z,76.44
2017-10-01T07:17:10.751Z,76.00
2017-10-01T07:18:10.771Z,75.90
2017-10-01T07:19:10.798Z,75.48
2017-10-01T07:20:10.814Z,76.10
2017-10-01T07:21:10.832Z,76.10
2017-10-01T07:22:10.852Z,75.33
2017-10-01T07:23:10.882Z,74.69
2017-10-01T07:24:10.895Z,74.51
2017-10-01T07:25:10.919Z,74.22
2017-10-01T07:26:10.940Z,73.55
2017-10-01T07:27:10.962Z,73.99
2017-10-01T07:28:10.983Z,74.02
2017-10-01T07:29:11.007Z,73.41
2017-10-01T07:30:11.023Z,74.76
2017-10-01T07:31:11.045Z,75.71
2017-10-01T07:32:11.067Z,76.19
2017-10-01T07:33:11.087Z,75.62
2017-10-01T07:34:11.111Z,75.43
2017-10-01T07:35:11.131Z,74.47
2017-10-01T07:36:11.151Z,74.08
2017-10-01T07:37:11.179Z,75.20
2017-10-01T07:38:11.198Z,76.64
2017-10-01T07:39:11.215Z,76.44
2017-10-01T07:40:11.231Z,76.73
2017-10-01T07:41:11.258Z,76.64
2017-10-01T07:42:11.276Z,75.96
2017-10-01T07:43:11.299Z,76.35
2017-10-01T07:44:11.319Z,76.50
2017-10-01T07:45:11.339Z,76.64
2017-10-01T07:46:11.361Z,75.96
2017-10-01T07:47:11.383Z,76.35
2017-10-01T07:48:11.402Z,76.69
2017-10-01T07:49:11.423Z,77.11
2017-10-01T07:50:11.454Z,75.39
2017-10-01T07:51:11.467Z,75.68
2017-10-01T07:52:11.488Z,75.96
2017-10-01T07:53:11.509Z,76.44
2017-10-01T07:54:11.533Z,76.54
2017-10-01T07:55:11.567Z,76.44
2017-10-01T07:56:11.628Z,76.82
2017-10-01T07:57:11.599Z,76.54
2017-10-01T07:58:11.641Z,76.54
2017-10-01T07:59:11.633Z,76.35
2017-10-01T08:00:11.655Z,76.25
2017-10-01T08:01:11.683Z,75.58
2017-10-01T08:02:11.719Z,75.39
2017-10-01T08:03:11.717Z,74.72
2017-10-01T08:04:11.743Z,74.62
2017-10-01T08:05:11.758Z,75.20
2017-10-01T08:06:11.783Z,74.72
2017-10-01T08:07:11.803Z,75.29
2017-10-01T08:08:11.851Z,75.39
2017-10-01T08:09:11.869Z,73.86
2017-10-01T08:10:11.873Z,74.72
2017-10-01T08:11:11.882Z,75.39
2017-10-01T08:12:11.906Z,75.29
2017-10-01T08:13:12.187Z,74.52
2017-10-01T08:14:12.000Z,73.99
2017-10-01T08:15:11.987Z,72.94
2017-10-01T08:16:11.986Z,73.51
2017-10-01T08:17:12.014Z,72.59
2017-10-01T08:18:12.031Z,72.11
2017-10-01T08:19:12.050Z,70.76
2017-10-01T08:20:12.094Z,69.04
2017-10-01T08:21:12.093Z,70.64
2017-10-01T08:22:12.118Z,68.43
2017-10-01T08:23:12.135Z,67.95
2017-10-01T08:24:12.172Z,68.37
2017-10-01T08:25:12.194Z,69.39
2017-10-01T08:26:12.200Z,69.90
2017-10-01T08:27:12.219Z,69.65
2017-10-01T08:28:12.287Z,68.50
2017-10-01T08:29:12.406Z,67.44
2017-10-01T08:30:12.304Z,66.00
2017-10-01T08:31:12.310Z,65.30
2017-10-01T08:32:12.342Z,66.06
2017-10-01T08:33:12.382Z,67.32
2017-10-01T08:34:12.404Z,67.02
2017-10-01T08:35:12.394Z,67.12
2017-10-01T08:36:12.421Z,66.39
2017-10-01T08:37:12.446Z,66.86
2017-10-01T08:38:12.472Z,67.50
2017-10-01T08:39:12.493Z,65.91
2017-10-01T08:40:12.532Z,66.00
2017-10-01T08:41:12.534Z,65.46
2017-10-01T08:42:12.569Z,65.36
2017-10-01T08:43:12.574Z,65.65
2017-10-01T08:44:12.590Z,65.94
2017-10-01T08:45:12.612Z,65.46
2017-10-01T08:46:12.642Z,65.97
2017-10-01T08:47:12.653Z,65.56
2017-10-01T08:48:12.691Z,65.36
2017-10-01T08:49:12.709Z,65.05
2017-10-01T08:50:12.724Z,66.19
2017-10-01T08:51:12.776Z,67.63
2017-10-01T08:52:12.807Z,67.25
2017-10-01T08:53:12.807Z,67.92
2017-10-01T08:54:12.810Z,66.49
2017-10-01T08:55:12.835Z,65.84
2017-10-01T08:56:12.888Z,65.27
2017-10-01T08:57:12.875Z,62.96
2017-10-01T08:58:12.898Z,64.12
2017-10-01T08:59:12.921Z,65.08
2017-10-01T09:00:12.947Z,65.65
2017-10-01T09:01:12.962Z,66.45
2017-10-01T09:02:12.991Z,68.62
2017-10-01T09:03:13.010Z,68.49
2017-10-01T09:04:13.028Z,69.77
2017-10-01T09:05:13.092Z,69.58
2017-10-01T09:06:13.078Z,69.64
2017-10-01T09:07:13.102Z,70.70
2017-10-01T09:08:13.116Z,70.56
2017-10-01T09:09:13.145Z,70.60
2017-10-01T09:10:13.167Z,71.02
2017-10-01T09:11:13.188Z,68.62
2017-10-01T09:12:13.208Z,68.02
2017-10-01T09:13:13.245Z,68.40
2017-10-01T09:14:13.266Z,67.29
2017-10-01T09:15:13.330Z,66.13
2017-10-01T09:16:13.304Z,67.73
2017-10-01T09:17:13.315Z,68.12
2017-10-01T09:18:13.348Z,68.33
2017-10-01T09:19:13.381Z,71.05
2017-10-01T09:20:13.393Z,70.13
2017-10-01T09:21:13.430Z,70.35
2017-10-01T09:22:13.427Z,71.21
2017-10-01T09:23:13.450Z,72.84
2017-10-01T09:24:13.471Z,71.44
2017-10-01T09:25:13.509Z,71.15
2017-10-01T09:26:13.512Z,71.21
2017-10-01T09:27:13.538Z,70.67
2017-10-01T09:28:13.552Z,69.17
2017-10-01T09:29:13.574Z,67.63
2017-10-01T09:30:13.603Z,68.24
2017-10-01T09:31:13.629Z,70.54
2017-10-01T09:32:13.647Z,71.05
2017-10-01T09:33:13.696Z,70.76
2017-10-01T09:34:13.681Z,70.80
2017-10-01T09:35:13.702Z,68.21
2017-10-01T09:36:13.753Z,67.57
2017-10-01T09:37:13.749Z,67.38
2017-10-01T09:38:13.926Z,68.12
2017-10-01T09:39:13.807Z,68.73
2017-10-01T09:40:13.816Z,67.76
2017-10-01T09:41:13.832Z,67.09
2017-10-01T09:42:13.856Z,65.84
2017-10-01T09:43:13.878Z,66.61
2017-10-01T09:44:13.905Z,65.88
2017-10-01T09:45:13.921Z,64.98
2017-10-01T09:46:13.954Z,65.49
2017-10-01T09:47:13.970Z,65.84
2017-10-01T09:48:13.990Z,65.97
2017-10-01T09:49:14.016Z,65.69
2017-10-01T09:50:14.031Z,65.40
2017-10-01T09:51:14.056Z,66.07
2017-10-01T09:52:14.076Z,65.72
2017-10-01T09:53:14.097Z,66.61
2017-10-01T09:54:14.128Z,68.05
2017-10-01T09:55:14.156Z,67.80
2017-10-01T09:56:14.177Z,67.07
2017-10-01T09:57:14.190Z,66.87
2017-10-01T09:58:14.206Z,65.62
2017-10-01T09:59:14.244Z,65.08
2017-10-01T10:00:14.254Z,64.37
2017-10-01T10:01:14.277Z,63.89
2017-10-01T10:02:14.299Z,63.99
2017-10-01T10:03:14.321Z,64.40
2017-10-01T10:04:14.342Z,64.22
2017-10-01T10:05:14.363Z,64.98
2017-10-01T10:06:14.392Z,62.68
2017-10-01T10:07:14.413Z,63.02
2017-10-01T10:08:14.435Z,64.02
2017-10-01T10:09:14.475Z,66.00
2017-10-01T10:10:14.479Z,67.76
2017-10-01T10:11:14.498Z,67.38
2017-10-01T10:12:14.520Z,66.07
2017-10-01T10:13:14.545Z,66.90
2017-10-01T10:14:14.568Z,67.16
2017-10-01T10:15:14.587Z,67.96
2017-10-01T10:16:14.610Z,66.93
2017-10-01T10:17:14.631Z,66.07
2017-10-01T10:18:14.650Z,65.97
2017-10-01T10:19:14.674Z,65.59
2017-10-01T10:20:14.697Z,63.76
2017-10-01T10:21:14.723Z,64.05
2017-10-01T10:22:14.746Z,64.43
2017-10-01T10:23:14.766Z,66.26
2017-10-01T10:24:14.784Z,66.64
2017-10-01T10:25:14.806Z,66.55
2017-10-01T10:26:14.828Z,66.16
2017-10-01T10:27:14.853Z,65.20
2017-10-01T10:28:14.879Z,64.15
2017-10-01T10:29:14.907Z,65.69
2017-10-01T10:30:14.916Z,65.53
2017-10-01T10:31:14.935Z,64.09
2017-10-01T10:32:14.962Z,63.32
2017-10-01T10:33:14.985Z,62.55
2017-10-01T10:34:15.005Z,63.12
2017-10-01T10:35:15.026Z,63.96
2017-10-01T10:36:15.049Z,65.11
2017-10-01T10:37:15.070Z,65.97
2017-10-01T10:38:15.093Z,64.25
2017-10-01T10:39:15.123Z,64.15
2017-10-01T10:40:15.134Z,64.15
2017-10-01T10:41:15.161Z,64.63
2017-10-01T10:42:15.190Z,65.49
2017-10-01T10:43:15.201Z,65.14
2017-10-01T10:44:15.221Z,63.22
2017-10-01T10:45:15.243Z,63.67
2017-10-01T10:46:15.266Z,63.32
2017-10-01T10:47:15.301Z,64.05
2017-10-01T10:48:15.321Z,65.11
2017-10-01T10:49:15.373Z,65.01
2017-10-01T10:50:15.356Z,64.15
2017-10-01T10:51:15.379Z,63.96
2017-10-01T10:52:15.398Z,64.09
2017-10-01T10:53:15.421Z,63.67
2017-10-01T10:54:15.453Z,64.05
2017-10-01T10:55:15.468Z,63.09
2017-10-01T10:56:15.485Z,62.74
2017-10-01T10:57:15.508Z,62.19
2017-10-01T10:58:15.529Z,62.29
2017-10-01T10:59:15.590Z,63.02
2017-10-01T11:00:15.586Z,62.96
2017-10-01T11:01:15.611Z,62.38
2017-10-01T11:02:15.645Z,63.06
2017-10-01T11:03:15.642Z,61.23
2017-10-01T11:04:15.675Z,61.52
2017-10-01T11:05:15.710Z,62.26
2017-10-01T11:06:15.721Z,63.86
2017-10-01T11:07:15.739Z,64.72
2017-10-01T11:08:15.756Z,64.18
2017-10-01T11:09:15.829Z,63.22
2017-10-01T11:10:15.839Z,63.28
2017-10-01T11:11:15.826Z,65.11
2017-10-01T11:12:15.837Z,65.69
2017-10-01T11:13:15.868Z,64.25
2017-10-01T11:14:15.883Z,63.06
2017-10-01T11:15:15.908Z,62.19
2017-10-01T11:16:15.927Z,62.10
2017-10-01T11:17:15.956Z,63.67
2017-10-01T11:18:15.986Z,64.25
2017-10-01T11:19:16.000Z,63.99
2017-10-01T11:20:16.024Z,63.70
2017-10-01T11:21:16.039Z,62.48
2017-10-01T11:22:16.058Z,60.56
2017-10-01T11:23:16.095Z,59.79
2017-10-01T11:24:16.104Z,59.22
2017-10-01T11:25:16.127Z,60.37
2017-10-01T11:26:16.147Z,59.79
2017-10-01T11:27:16.173Z,60.11
2017-10-01T11:28:16.197Z,59.92
2017-10-01T11:29:16.214Z,59.31
2017-10-01T11:30:16.238Z,59.60
2017-10-01T11:31:16.268Z,60.14
2017-10-01T11:32:16.281Z,61.30
2017-10-01T11:33:16.311Z,60.78
2017-10-01T11:34:16.329Z,63.09
2017-10-01T11:35:16.347Z,62.13
2017-10-01T11:36:16.371Z,61.30
2017-10-01T11:37:16.394Z,61.11
2017-10-01T11:38:49.134Z,59.86
2017-10-01T11:39:49.108Z,59.12
2017-10-01T11:41:42.100Z,58.37
2017-10-01T11:42:42.073Z,58.86
2017-10-01T11:44:35.014Z,58.09
2017-10-01T11:45:35.031Z,57.70
2017-10-01T11:47:28.005Z,57.48
2017-10-01T11:48:27.989Z,58.73
2017-10-01T11:50:20.931Z,59.31
2017-10-01T11:51:20.947Z,58.92
2017-10-01T11:53:13.923Z,58.95
2017-10-01T11:54:13.911Z,59.60
2017-10-01T11:56:06.857Z,58.37
2017-10-01T11:57:06.872Z,58.18
2017-10-01T11:58:59.849Z,58.92
2017-10-01T11:59:59.832Z,60.08
2017-10-01T12:01:52.774Z,61.04
2017-10-01T12:02:52.788Z,61.23
2017-10-01T12:04:45.771Z,59.63
2017-10-01T12:05:45.746Z,60.21
2017-10-01T12:07:38.692Z,61.43
2017-10-01T12:08:38.704Z,60.05
2017-10-01T12:10:31.676Z,60.08
2017-10-01T12:11:31.659Z,59.02
2017-10-01T12:13:25.649Z,59.12
2017-10-01T12:14:25.626Z,59.22
2017-10-01T12:16:18.571Z,58.77
2017-10-01T12:17:18.589Z,58.42
2017-10-01T12:19:11.564Z,61.20
2017-10-01T12:20:11.543Z,60.53
2017-10-01T12:22:04.497Z,62.45
2017-10-01T12:23:04.514Z,60.69
2017-10-01T12:24:58.482Z,61.55
2017-10-01T12:25:58.465Z,60.88
2017-10-01T12:27:51.408Z,60.63
2017-10-01T12:28:51.428Z,60.82
2017-10-01T12:30:44.407Z,57.45
2017-10-01T12:31:44.390Z,57.07
2017-10-01T12:33:37.334Z,57.29
2017-10-01T12:34:37.349Z,56.43
2017-10-01T12:36:30.333Z,57.20
2017-10-01T12:37:30.318Z,57.68
2017-10-01T12:38:30.337Z,58.70
2017-10-01T12:39:30.357Z,59.66
2017-10-01T12:40:30.376Z,60.43
2017-10-01T12:41:30.428Z,61.55
2017-10-01T12:42:30.422Z,59.25
2017-10-01T12:43:30.447Z,57.75
2017-10-01T12:44:30.468Z,57.65
2017-10-01T12:45:30.488Z,57.84
2017-10-01T12:46:30.612Z,57.10
2017-10-01T12:47:30.535Z,56.33
2017-10-01T12:48:30.555Z,56.26
2017-10-01T12:49:30.576Z,56.55
2017-10-01T12:50:30.598Z,56.74
2017-10-01T12:51:30.618Z,57.39
2017-10-01T12:52:30.639Z,57.68
2017-10-01T12:53:30.666Z,56.81
2017-10-01T12:54:30.688Z,58.45
2017-10-01T12:55:30.708Z,59.12
2017-10-01T12:56:30.730Z,57.58
2017-10-01T12:57:30.753Z,56.52
2017-10-01T12:58:30.773Z,55.88
2017-10-01T12:59:30.799Z,55.68
2017-10-01T13:00:30.817Z,55.27
2017-10-01T13:01:30.843Z,54.82
2017-10-01T13:02:30.865Z,55.98
2017-10-01T13:03:30.882Z,55.59
2017-10-01T13:04:30.904Z,55.40
2017-10-01T13:05:30.933Z,55.30
2017-10-01T13:06:30.952Z,54.24
2017-10-01T13:07:30.969Z,54.22
2017-10-01T13:08:30.994Z,53.28
2017-10-01T13:09:31.016Z,52.03
2017-10-01T13:10:31.036Z,52.99
2017-10-01T13:11:31.058Z,54.31
2017-10-01T13:12:31.085Z,52.03
2017-10-01T13:13:31.104Z,52.51
2017-10-01T13:14:31.128Z,52.42
2017-10-01T13:15:31.158Z,52.12
2017-10-01T13:16:31.167Z,51.84
2017-10-01T13:17:31.191Z,52.15
2017-10-01T13:18:31.215Z,51.29
2017-10-01T13:19:31.235Z,51.45
2017-10-01T13:20:31.257Z,52.03
2017-10-01T13:21:31.280Z,51.74
2017-10-01T13:22:31.303Z,52.12
2017-10-01T13:23:31.336Z,51.84
2017-10-01T13:24:31.347Z,52.63
2017-10-01T13:25:31.368Z,51.84
2017-10-01T13:26:31.395Z,52.22
2017-10-01T13:27:31.416Z,52.99
2017-10-01T13:28:31.437Z,54.72
2017-10-01T13:29:31.456Z,53.28
2017-10-01T13:30:31.482Z,52.22
2017-10-01T13:31:31.501Z,52.99
2017-10-01T13:32:31.535Z,52.29
2017-10-01T13:33:31.545Z,52.99
2017-10-01T13:34:31.567Z,52.89
2017-10-01T13:35:31.590Z,54.05
2017-10-01T13:36:31.612Z,54.14
2017-10-01T13:37:31.642Z,53.86
2017-10-01T13:38:31.663Z,51.74
2017-10-01T13:39:31.676Z,51.19
2017-10-01T13:40:31.701Z,52.70
2017-10-01T13:41:31.724Z,53.09
2017-10-01T13:42:31.745Z,54.14
2017-10-01T13:43:31.765Z,52.61
2017-10-01T13:44:31.789Z,52.12
2017-10-01T13:45:31.809Z,52.63
2017-10-01T13:46:31.832Z,52.34
2017-10-01T13:47:31.857Z,52.15
2017-10-01T13:48:31.877Z,50.78
2017-10-01T13:49:31.906Z,51.17
2017-10-01T13:50:31.921Z,51.45
2017-10-01T13:51:31.945Z,51.07